Sawyer William — WDD9255 — position and weather

sailwx.info

Track history (hours):
 
Tides and Currents Weather Stations Pressure Air Temp Water Temp Dewpoint Dewpoint Depression Visibility Wind Speed Wind Dir Waves Ship Positions

Sawyer William

Owner: Florida Marine, LLC, Mandeville, LA. More information available from US FCC via Universal Licensing System and Coast Guard Vessel Documentation Center.

Last reported at 2018-Feb-18 19:37 UTC. Time now 2018-Feb-19 14:19 UTC.
Position N 29°50' W 091°58'.

Length 27 m; draft 2.9 m.

Type: Ship (hazmat cat A). MMSI: 367308990.

Date/timePositionNaut miles runAvg speedWind from/ knotsBaromVisibWave heightAir tempDewpointWater temp
2018-Feb-18 19:37N 29°50' W 091°58'1 4.8
2018-Feb-18 19:27N 29°50' W 091°59'2 5.2
2018-Feb-18 19:00N 29°49' W 092°02'2 4.8
2018-Feb-18 18:30N 29°48' W 092°04'2 4.8
2018-Feb-18 18:00N 29°47' W 092°07'2 4.9
2018-Feb-18 17:30N 29°47' W 092°10'2 4.7
2018-Feb-18 17:00N 29°47' W 092°12'1 2.5
2018-Feb-18 16:30N 29°48' W 092°14'1 1.2
2018-Feb-18 16:00N 29°48' W 092°14'1 1.2
2018-Feb-18 15:30N 29°48' W 092°15'0 0.3
2018-Feb-18 15:00N 29°48' W 092°15'1 1.6
2018-Feb-18 14:30N 29°48' W 092°16'0 1.0
2018-Feb-18 14:00N 29°49' W 092°16'2 3.8
2018-Feb-18 13:30N 29°50' W 092°18'36 3.0
2018-Feb-18 01:22N 29°56' W 092°59'4 4.1
2018-Feb-18 00:24N 29°56' W 093°03'1 3.0
2018-Feb-18 00:00N 29°56' W 093°05'4 3.6
2018-Feb-17 22:54N 29°56' W 093°09'2 4.1
2018-Feb-17 22:30N 29°57' W 093°11'2 3.5
2018-Feb-17 22:00N 29°59' W 093°12'2 3.8
2018-Feb-17 21:30N 30°00' W 093°13'1 3.0
2018-Feb-17 21:00N 30°01' W 093°14'1 2.8
2018-Feb-17 20:30N 30°02' W 093°15'0 0.5
2018-Feb-17 20:00N 30°02' W 093°16'1 2.4
2018-Feb-17 19:30N 30°03' W 093°16'2 4.1
2018-Feb-17 19:00N 30°05' W 093°17'1 2.2
2018-Feb-17 18:30N 30°06' W 093°18'0 0.5
2018-Feb-17 18:00N 30°06' W 093°18'0 0.0
2018-Feb-17 17:30N 30°06' W 093°18'0 0.0
2018-Feb-17 17:00N 30°06' W 093°18'0 0.0
2018-Feb-17 16:30N 30°06' W 093°18'0 0.0
2018-Feb-17 16:00N 30°06' W 093°18'0 0.0
2018-Feb-17 15:30N 30°06' W 093°18'0 0.0
2018-Feb-17 14:59N 30°06' W 093°18'0 0.0
2018-Feb-17 14:30N 30°06' W 093°18'0 0.0
2018-Feb-17 14:00N 30°06' W 093°18'0 0.0
2018-Feb-17 13:27N 30°06' W 093°18'0 0.0
2018-Feb-17 12:58N 30°06' W 093°18'0 0.0
2018-Feb-17 12:26N 30°06' W 093°18'0 0.0
2018-Feb-17 12:00N 30°06' W 093°18'0 0.0
2018-Feb-17 11:30N 30°06' W 093°18'0 0.0
2018-Feb-17 11:00N 30°06' W 093°18'0 0.0
2018-Feb-17 10:30N 30°06' W 093°18'0 0.0
2018-Feb-17 09:58N 30°06' W 093°18'0 0.0
2018-Feb-17 09:30N 30°06' W 093°18'0 0.0
2018-Feb-17 09:00N 30°06' W 093°18'0 0.0
2018-Feb-17 08:28N 30°06' W 093°18'0 0.0
2018-Feb-17 08:00N 30°06' W 093°18'0 0.0
2018-Feb-17 07:29N 30°06' W 093°18'0 0.0
2018-Feb-17 07:00N 30°06' W 093°18'0 0.0
2018-Feb-17 06:30N 30°06' W 093°18'0 0.0
2018-Feb-17 06:00N 30°06' W 093°18'0 0.0
2018-Feb-17 05:26N 30°06' W 093°18'0 0.0
2018-Feb-17 05:00N 30°06' W 093°18'0 0.0
2018-Feb-17 04:30N 30°06' W 093°18'0 0.0
2018-Feb-17 04:00N 30°06' W 093°18'0 0.0
2018-Feb-17 03:30N 30°06' W 093°18'0 0.9
2018-Feb-17 03:00N 30°06' W 093°19'2 3.1
2018-Feb-17 02:30N 30°05' W 093°20'2 3.7
2018-Feb-17 02:00N 30°04' W 093°21'2 4.2
2018-Feb-17 01:28N 30°04' W 093°24'2 4.8
2018-Feb-17 01:00N 30°04' W 093°27'2 4.8
2018-Feb-17 00:30N 30°04' W 093°29'2 4.8
2018-Feb-17 00:00N 30°04' W 093°32'2 4.9
2018-Feb-16 23:30N 30°04' W 093°35'3 4.9
2018-Feb-16 22:58N 30°04' W 093°38'2 4.8
2018-Feb-16 22:30N 30°04' W 093°41'2 4.7
2018-Feb-16 22:00N 30°03' W 093°43'2 4.6
2018-Feb-16 21:30N 30°01' W 093°45'2 4.7
2018-Feb-16 21:00N 29°60' W 093°47'2 4.7
2018-Feb-16 20:30N 29°59' W 093°49'2 3.7
2018-Feb-16 20:00N 29°58' W 093°51'3 5.7
2018-Feb-16 19:30N 29°59' W 093°54'3 5.4
2018-Feb-16 19:00N 30°00' W 093°57'2 3.2
2018-Feb-16 18:30N 30°01' W 093°59'0 0.3
2018-Feb-16 18:00N 30°01' W 093°59'0 0.0
2018-Feb-16 17:30N 30°01' W 093°59'0 0.0
2018-Feb-16 17:00N 30°01' W 093°59'0 0.0
2018-Feb-16 16:30N 30°01' W 093°59'0 0.0
2018-Feb-16 16:00N 30°01' W 093°59'0 0.0
2018-Feb-16 15:30N 30°01' W 093°59'0 0.0
2018-Feb-16 15:00N 30°01' W 093°59'0 0.0
2018-Feb-16 14:30N 30°01' W 093°59'0 0.0
2018-Feb-16 14:00N 30°01' W 093°59'0 0.0
2018-Feb-16 13:30N 30°01' W 093°59'0 0.0
2018-Feb-16 13:00N 30°01' W 093°59'0 0.0
2018-Feb-16 12:30N 30°01' W 093°59'0 0.0
2018-Feb-16 12:00N 30°01' W 093°59'0 0.0
2018-Feb-16 11:30N 30°01' W 093°59'0 0.0
2018-Feb-16 11:00N 30°01' W 093°59'0 0.0
2018-Feb-16 10:30N 30°01' W 093°59'0 0.0
2018-Feb-16 10:00N 30°01' W 093°59'0 0.0
2018-Feb-16 09:30N 30°01' W 093°59'0 0.0
2018-Feb-16 09:00N 30°01' W 093°59'0 0.0
2018-Feb-16 08:28N 30°01' W 093°59'0 0.0
2018-Feb-16 08:00N 30°01' W 093°59'0 0.0
2018-Feb-16 07:29N 30°01' W 093°59'0 0.0
2018-Feb-16 07:00N 30°01' W 093°59'0 0.0
2018-Feb-16 06:30N 30°01' W 093°59'0 0.0
2018-Feb-16 06:00N 30°01' W 093°59'0 0.0
2018-Feb-16 05:30N 30°01' W 093°59'0 0.0
2018-Feb-16 05:00N 30°01' W 093°59'0 0.0
2018-Feb-16 04:30N 30°01' W 093°59'0 0.0
2018-Feb-16 04:00N 30°01' W 093°59'0 0.0
2018-Feb-16 03:30N 30°01' W 093°59'0 0.0
2018-Feb-16 03:00N 30°01' W 093°59'0 0.0
2018-Feb-16 02:30N 30°01' W 093°59'0 0.0
2018-Feb-16 02:00N 30°01' W 093°59'0 0.0
2018-Feb-16 01:30N 30°01' W 093°59'0 0.0
2018-Feb-16 01:00N 30°01' W 093°59'0 0.0
2018-Feb-16 00:30N 30°01' W 093°59'0 0.5
2018-Feb-16 00:00N 30°01' W 093°59'0 0.0
2018-Feb-15 23:30N 30°01' W 093°59'0 0.0
2018-Feb-15 23:00N 30°01' W 093°59'0 0.0
2018-Feb-15 22:30N 30°01' W 093°59'0 0.0
2018-Feb-15 22:00N 30°01' W 093°59'1 1.2
2018-Feb-15 21:30N 30°01' W 093°60'0 0.5
2018-Feb-15 21:00N 30°01' W 093°60'0 0.0
2018-Feb-15 20:30N 30°01' W 093°60'0 0.0
2018-Feb-15 20:00N 30°01' W 093°60'0 0.0
2018-Feb-15 19:30N 30°01' W 093°60'0 0.0
2018-Feb-15 19:00N 30°01' W 093°60'0 0.0
2018-Feb-15 18:30N 30°01' W 093°60'0 0.0
2018-Feb-15 18:00N 30°01' W 093°60'0 0.1
2018-Feb-15 17:30N 30°01' W 093°60'1 2.3
2018-Feb-15 17:00N 30°01' W 093°58'2 3.2
2018-Feb-15 16:30N 29°60' W 093°57'2 3.4
2018-Feb-15 16:00N 29°59' W 093°55'0 0.9
2018-Feb-15 15:30N 29°60' W 093°55'0 0.0
2018-Feb-15 15:00N 29°60' W 093°55'0 0.0
2018-Feb-15 14:30N 29°60' W 093°55'0 0.0
2018-Feb-15 14:00N 29°60' W 093°55'0 0.0
2018-Feb-15 13:30N 29°60' W 093°55'0 0.0
2018-Feb-15 13:00N 29°60' W 093°55'0 0.0
2018-Feb-15 12:30N 29°60' W 093°55'0 0.0
2018-Feb-15 12:00N 29°60' W 093°55'0 0.0
2018-Feb-15 11:30N 29°60' W 093°55'0 0.0
2018-Feb-15 11:00N 29°60' W 093°55'0 0.0
2018-Feb-15 10:30N 29°60' W 093°55'0 0.0
2018-Feb-15 10:00N 29°60' W 093°55'0 0.0
2018-Feb-15 09:30N 29°60' W 093°55'0 0.0
2018-Feb-15 09:00N 29°60' W 093°55'0 0.0
2018-Feb-15 08:30N 29°60' W 093°55'0 0.0
2018-Feb-15 08:00N 29°60' W 093°55'0 0.0
2018-Feb-15 07:30N 29°60' W 093°55'0 0.0
2018-Feb-15 07:00N 29°60' W 093°55'0 0.0
2018-Feb-15 06:30N 29°60' W 093°55'0 0.0
2018-Feb-15 06:00N 29°60' W 093°55'0 0.0
2018-Feb-15 05:30N 29°60' W 093°55'0 0.0
2018-Feb-15 05:00N 29°60' W 093°55'0 0.0
2018-Feb-15 04:30N 29°60' W 093°55'0 0.0
2018-Feb-15 03:59N 29°60' W 093°55'0 0.0
2018-Feb-15 03:29N 29°60' W 093°55'0 0.0
2018-Feb-15 03:00N 29°60' W 093°55'0 0.0
2018-Feb-15 02:30N 29°60' W 093°55'0 0.0
2018-Feb-15 02:00N 29°60' W 093°55'0 0.0
2018-Feb-15 01:30N 29°60' W 093°55'0 0.0
2018-Feb-15 01:00N 29°60' W 093°55'0 0.0
2018-Feb-15 00:30N 29°60' W 093°55'0 0.0
2018-Feb-14 23:59N 29°60' W 093°55'0 0.1
2018-Feb-14 23:30N 29°60' W 093°55'3 6.1
2018-Feb-14 23:00N 29°58' W 093°51'0 0.4
2018-Feb-14 22:30N 29°58' W 093°52'0 0.0
2018-Feb-14 22:00N 29°58' W 093°52'0 0.0
2018-Feb-14 21:30N 29°58' W 093°52'0 0.0
2018-Feb-14 21:00N 29°58' W 093°52'0 0.0
2018-Feb-14 20:30N 29°58' W 093°52'0 0.0
2018-Feb-14 19:58N 29°58' W 093°52'0 0.0
2018-Feb-14 19:28N 29°58' W 093°52'0 0.0
2018-Feb-14 19:00N 29°58' W 093°52'0 0.0
2018-Feb-14 18:29N 29°58' W 093°52'0 0.0
2018-Feb-14 18:00N 29°58' W 093°52'0 0.0
2018-Feb-14 17:25N 29°58' W 093°52'0 0.0
2018-Feb-14 17:00N 29°58' W 093°52'0 0.0
2018-Feb-14 16:30N 29°58' W 093°52'0 0.0
2018-Feb-14 16:00N 29°58' W 093°52'0 0.0
2018-Feb-14 15:30N 29°58' W 093°52'0 0.0
2018-Feb-14 15:00N 29°58' W 093°52'0 0.0
2018-Feb-14 14:30N 29°58' W 093°52'0 0.0
2018-Feb-14 13:59N 29°58' W 093°52'1 2.0
2018-Feb-14 13:31N 29°59' W 093°52'2 4.2
2018-Feb-14 13:00N 29°60' W 093°55'0 0.0
2018-Feb-14 12:30N 29°60' W 093°55'0 0.0
2018-Feb-14 12:00N 29°60' W 093°55'0 0.0
2018-Feb-14 11:30N 29°60' W 093°55'0 0.0
2018-Feb-14 11:00N 29°60' W 093°55'0 0.0
2018-Feb-14 10:29N 29°60' W 093°55'0 0.0
2018-Feb-14 10:00N 29°60' W 093°55'0 0.0
2018-Feb-14 09:30N 29°60' W 093°55'0 0.0
2018-Feb-14 09:00N 29°60' W 093°55'0 0.0
2018-Feb-14 08:30N 29°60' W 093°55'0 0.0
2018-Feb-14 08:00N 29°60' W 093°55'0 0.0
2018-Feb-14 07:30N 29°60' W 093°55'0 0.0
2018-Feb-14 07:00N 29°60' W 093°55'3 5.2
2018-Feb-14 06:30N 29°59' W 093°52'1 1.3
2018-Feb-14 06:00N 29°58' W 093°52'0 0.0
2018-Feb-14 05:30N 29°58' W 093°52'0 0.0
2018-Feb-14 05:00N 29°58' W 093°52'0 0.1
2018-Feb-14 04:30N 29°58' W 093°52'0 0.1
2018-Feb-14 04:00N 29°58' W 093°52'0 0.0
2018-Feb-14 03:30N 29°58' W 093°52'0 0.0
2018-Feb-14 03:00N 29°58' W 093°52'0 0.0
2018-Feb-14 02:30N 29°58' W 093°52'0 0.0
2018-Feb-14 02:00N 29°58' W 093°52'0 0.0
2018-Feb-14 01:27N 29°58' W 093°52'0 0.0
2018-Feb-14 01:00N 29°58' W 093°52'0 0.0
2018-Feb-14 00:30N 29°58' W 093°52'0 0.0
2018-Feb-14 00:00N 29°58' W 093°52'0 0.0
2018-Feb-13 23:30N 29°58' W 093°52'0 0.0
2018-Feb-13 23:00N 29°58' W 093°52'0 0.0
2018-Feb-13 22:30N 29°58' W 093°52'0 0.0
2018-Feb-13 22:00N 29°58' W 093°52'0 0.0
2018-Feb-13 21:30N 29°58' W 093°52'0 0.0
2018-Feb-13 21:00N 29°58' W 093°52'0 0.0
2018-Feb-13 20:30N 29°58' W 093°52'0 0.0
2018-Feb-13 20:00N 29°58' W 093°52'0 0.0
2018-Feb-13 19:30N 29°58' W 093°52'0 0.0
2018-Feb-13 18:59N 29°58' W 093°52'0 0.0
2018-Feb-13 18:30N 29°58' W 093°52'0 0.0
2018-Feb-13 18:00N 29°58' W 093°52'0 0.0
2018-Feb-13 17:29N 29°58' W 093°52'0 0.0
2018-Feb-13 17:00N 29°58' W 093°52'0 0.0
2018-Feb-13 16:30N 29°58' W 093°52'0 0.0
2018-Feb-13 16:00N 29°58' W 093°52'0 0.0
2018-Feb-13 15:30N 29°58' W 093°52'1 2.0
2018-Feb-13 15:00N 29°59' W 093°52'2 4.2
2018-Feb-13 14:30N 29°60' W 093°55'0 0.0
2018-Feb-13 14:00N 29°60' W 093°55'0 0.0
2018-Feb-13 13:30N 29°60' W 093°55'0 0.0
2018-Feb-13 13:00N 29°60' W 093°55'0 0.0
2018-Feb-13 12:30N 29°60' W 093°55'0 0.0
2018-Feb-13 12:00N 29°60' W 093°55'0 0.0
2018-Feb-13 11:30N 29°60' W 093°55'0 0.0
2018-Feb-13 11:00N 29°60' W 093°55'0 0.0
2018-Feb-13 10:30N 29°60' W 093°55'0 0.0
2018-Feb-13 10:00N 29°60' W 093°55'0 0.0
2018-Feb-13 09:30N 29°60' W 093°55'0 0.0
2018-Feb-13 09:00N 29°60' W 093°55'1 2.0
2018-Feb-13 08:30N 29°59' W 093°54'3 5.2
2018-Feb-13 08:00N 29°58' W 093°51'3 5.4
2018-Feb-13 07:30N 29°59' W 093°48'3 5.7
2018-Feb-13 07:00N 30°01' W 093°45'3 5.1
2018-Feb-13 06:28N 30°03' W 093°43'3 4.7
2018-Feb-13 05:56N 30°04' W 093°40'3 6.6
2018-Feb-13 05:28N 30°04' W 093°37'3 6.4
2018-Feb-13 05:00N 30°04' W 093°33'3 6.3
2018-Feb-13 04:30N 30°04' W 093°30'3 6.4
2018-Feb-13 04:00N 30°04' W 093°26'3 6.2
2018-Feb-13 03:30N 30°04' W 093°22'3 5.8
2018-Feb-13 03:00N 30°05' W 093°20'1 2.7
2018-Feb-13 02:30N 30°06' W 093°19'0 0.0
2018-Feb-13 02:00N 30°06' W 093°19'0 0.2
2018-Feb-13 01:29N 30°06' W 093°19'2 3.3
2018-Feb-13 01:00N 30°05' W 093°17'1 1.7
2018-Feb-13 00:30N 30°05' W 093°17'1 1.1
2018-Feb-13 00:00N 30°04' W 093°16'1 2.3
2018-Feb-12 23:30N 30°03' W 093°16'2 4.9
2018-Feb-12 23:00N 30°01' W 093°14'3 6.1
2018-Feb-12 22:30N 29°59' W 093°12'3 6.5
2018-Feb-12 22:00N 29°56' W 093°10'42 5.6
2018-Feb-12 14:30N 29°51' W 092°21'3 4.2
2018-Feb-12 13:52N 29°50' W 092°18'2 5.1
2018-Feb-12 13:30N 29°49' W 092°17'3 5.5
2018-Feb-12 13:00N 29°48' W 092°14'2 4.6
2018-Feb-12 12:30N 29°47' W 092°12'2 4.2
2018-Feb-12 12:00N 29°47' W 092°09'3 5.4
2018-Feb-12 11:30N 29°48' W 092°06'3 5.5
2018-Feb-12 10:53N 29°49' W 092°02'  
Track history (hours):
 
Tides and Currents Weather Stations Pressure Air Temp Water Temp Dewpoint Dewpoint Depression Visibility Wind Speed Wind Dir Waves Ship Positions

Sawyer William

Owner: Florida Marine, LLC, Mandeville, LA. More information available from US FCC via Universal Licensing System and Coast Guard Vessel Documentation Center.

Last reported at 2018-Feb-18 19:37 UTC. Time now 2018-Feb-19 14:19 UTC.
Position N 29°50' W 091°58'.

Length 27 m; draft 2.9 m.

Type: Ship (hazmat cat A). MMSI: 367308990.

Date/timePositionNaut miles runAvg speedWind from/ knotsBaromVisibWave heightAir tempDewpointWater temp
2018-Feb-18 19:37N 29°50' W 091°58'1 4.8
2018-Feb-18 19:27N 29°50' W 091°59'2 5.2
2018-Feb-18 19:00N 29°49' W 092°02'2 4.8
2018-Feb-18 18:30N 29°48' W 092°04'2 4.8
2018-Feb-18 18:00N 29°47' W 092°07'2 4.9
2018-Feb-18 17:30N 29°47' W 092°10'2 4.7
2018-Feb-18 17:00N 29°47' W 092°12'1 2.5
2018-Feb-18 16:30N 29°48' W 092°14'1 1.2
2018-Feb-18 16:00N 29°48' W 092°14'1 1.2
2018-Feb-18 15:30N 29°48' W 092°15'0 0.3
2018-Feb-18 15:00N 29°48' W 092°15'1 1.6
2018-Feb-18 14:30N 29°48' W 092°16'0 1.0
2018-Feb-18 14:00N 29°49' W 092°16'2 3.8
2018-Feb-18 13:30N 29°50' W 092°18'36 3.0
2018-Feb-18 01:22N 29°56' W 092°59'4 4.1
2018-Feb-18 00:24N 29°56' W 093°03'1 3.0
2018-Feb-18 00:00N 29°56' W 093°05'4 3.6
2018-Feb-17 22:54N 29°56' W 093°09'2 4.1
2018-Feb-17 22:30N 29°57' W 093°11'2 3.5
2018-Feb-17 22:00N 29°59' W 093°12'2 3.8
2018-Feb-17 21:30N 30°00' W 093°13'1 3.0
2018-Feb-17 21:00N 30°01' W 093°14'1 2.8
2018-Feb-17 20:30N 30°02' W 093°15'0 0.5
2018-Feb-17 20:00N 30°02' W 093°16'1 2.4
2018-Feb-17 19:30N 30°03' W 093°16'2 4.1
2018-Feb-17 19:00N 30°05' W 093°17'1 2.2
2018-Feb-17 18:30N 30°06' W 093°18'0 0.5
2018-Feb-17 18:00N 30°06' W 093°18'0 0.0
2018-Feb-17 17:30N 30°06' W 093°18'0 0.0
2018-Feb-17 17:00N 30°06' W 093°18'0 0.0
2018-Feb-17 16:30N 30°06' W 093°18'0 0.0
2018-Feb-17 16:00N 30°06' W 093°18'0 0.0
2018-Feb-17 15:30N 30°06' W 093°18'0 0.0
2018-Feb-17 14:59N 30°06' W 093°18'0 0.0
2018-Feb-17 14:30N 30°06' W 093°18'0 0.0
2018-Feb-17 14:00N 30°06' W 093°18'0 0.0
2018-Feb-17 13:27N 30°06' W 093°18'0 0.0
2018-Feb-17 12:58N 30°06' W 093°18'0 0.0
2018-Feb-17 12:26N 30°06' W 093°18'0 0.0
2018-Feb-17 12:00N 30°06' W 093°18'0 0.0
2018-Feb-17 11:30N 30°06' W 093°18'0 0.0
2018-Feb-17 11:00N 30°06' W 093°18'0 0.0
2018-Feb-17 10:30N 30°06' W 093°18'0 0.0
2018-Feb-17 09:58N 30°06' W 093°18'0 0.0
2018-Feb-17 09:30N 30°06' W 093°18'0 0.0
2018-Feb-17 09:00N 30°06' W 093°18'0 0.0
2018-Feb-17 08:28N 30°06' W 093°18'0 0.0
2018-Feb-17 08:00N 30°06' W 093°18'0 0.0
2018-Feb-17 07:29N 30°06' W 093°18'0 0.0
2018-Feb-17 07:00N 30°06' W 093°18'0 0.0
2018-Feb-17 06:30N 30°06' W 093°18'0 0.0
2018-Feb-17 06:00N 30°06' W 093°18'0 0.0
2018-Feb-17 05:26N 30°06' W 093°18'0 0.0
2018-Feb-17 05:00N 30°06' W 093°18'0 0.0
2018-Feb-17 04:30N 30°06' W 093°18'0 0.0
2018-Feb-17 04:00N 30°06' W 093°18'0 0.0
2018-Feb-17 03:30N 30°06' W 093°18'0 0.9
2018-Feb-17 03:00N 30°06' W 093°19'2 3.1
2018-Feb-17 02:30N 30°05' W 093°20'2 3.7
2018-Feb-17 02:00N 30°04' W 093°21'2 4.2
2018-Feb-17 01:28N 30°04' W 093°24'2 4.8
2018-Feb-17 01:00N 30°04' W 093°27'2 4.8
2018-Feb-17 00:30N 30°04' W 093°29'2 4.8
2018-Feb-17 00:00N 30°04' W 093°32'2 4.9
2018-Feb-16 23:30N 30°04' W 093°35'3 4.9
2018-Feb-16 22:58N 30°04' W 093°38'2 4.8
2018-Feb-16 22:30N 30°04' W 093°41'2 4.7
2018-Feb-16 22:00N 30°03' W 093°43'2 4.6
2018-Feb-16 21:30N 30°01' W 093°45'2 4.7
2018-Feb-16 21:00N 29°60' W 093°47'2 4.7
2018-Feb-16 20:30N 29°59' W 093°49'2 3.7
2018-Feb-16 20:00N 29°58' W 093°51'3 5.7
2018-Feb-16 19:30N 29°59' W 093°54'3 5.4
2018-Feb-16 19:00N 30°00' W 093°57'2 3.2
2018-Feb-16 18:30N 30°01' W 093°59'0 0.3
2018-Feb-16 18:00N 30°01' W 093°59'0 0.0
2018-Feb-16 17:30N 30°01' W 093°59'0 0.0
2018-Feb-16 17:00N 30°01' W 093°59'0 0.0
2018-Feb-16 16:30N 30°01' W 093°59'0 0.0
2018-Feb-16 16:00N 30°01' W 093°59'0 0.0
2018-Feb-16 15:30N 30°01' W 093°59'0 0.0
2018-Feb-16 15:00N 30°01' W 093°59'0 0.0
2018-Feb-16 14:30N 30°01' W 093°59'0 0.0
2018-Feb-16 14:00N 30°01' W 093°59'0 0.0
2018-Feb-16 13:30N 30°01' W 093°59'0 0.0
2018-Feb-16 13:00N 30°01' W 093°59'0 0.0
2018-Feb-16 12:30N 30°01' W 093°59'0 0.0
2018-Feb-16 12:00N 30°01' W 093°59'0 0.0
2018-Feb-16 11:30N 30°01' W 093°59'0 0.0
2018-Feb-16 11:00N 30°01' W 093°59'0 0.0
2018-Feb-16 10:30N 30°01' W 093°59'0 0.0
2018-Feb-16 10:00N 30°01' W 093°59'0 0.0
2018-Feb-16 09:30N 30°01' W 093°59'0 0.0
2018-Feb-16 09:00N 30°01' W 093°59'0 0.0
2018-Feb-16 08:28N 30°01' W 093°59'0 0.0
2018-Feb-16 08:00N 30°01' W 093°59'0 0.0
2018-Feb-16 07:29N 30°01' W 093°59'0 0.0
2018-Feb-16 07:00N 30°01' W 093°59'0 0.0
2018-Feb-16 06:30N 30°01' W 093°59'0 0.0
2018-Feb-16 06:00N 30°01' W 093°59'0 0.0
2018-Feb-16 05:30N 30°01' W 093°59'0 0.0
2018-Feb-16 05:00N 30°01' W 093°59'0 0.0
2018-Feb-16 04:30N 30°01' W 093°59'0 0.0
2018-Feb-16 04:00N 30°01' W 093°59'0 0.0
2018-Feb-16 03:30N 30°01' W 093°59'0 0.0
2018-Feb-16 03:00N 30°01' W 093°59'0 0.0
2018-Feb-16 02:30N 30°01' W 093°59'0 0.0
2018-Feb-16 02:00N 30°01' W 093°59'0 0.0
2018-Feb-16 01:30N 30°01' W 093°59'0 0.0
2018-Feb-16 01:00N 30°01' W 093°59'0 0.0
2018-Feb-16 00:30N 30°01' W 093°59'0 0.5
2018-Feb-16 00:00N 30°01' W 093°59'0 0.0
2018-Feb-15 23:30N 30°01' W 093°59'0 0.0
2018-Feb-15 23:00N 30°01' W 093°59'0 0.0
2018-Feb-15 22:30N 30°01' W 093°59'0 0.0
2018-Feb-15 22:00N 30°01' W 093°59'1 1.2
2018-Feb-15 21:30N 30°01' W 093°60'0 0.5
2018-Feb-15 21:00N 30°01' W 093°60'0 0.0
2018-Feb-15 20:30N 30°01' W 093°60'0 0.0
2018-Feb-15 20:00N 30°01' W 093°60'0 0.0
2018-Feb-15 19:30N 30°01' W 093°60'0 0.0
2018-Feb-15 19:00N 30°01' W 093°60'0 0.0
2018-Feb-15 18:30N 30°01' W 093°60'0 0.0
2018-Feb-15 18:00N 30°01' W 093°60'0 0.1
2018-Feb-15 17:30N 30°01' W 093°60'1 2.3
2018-Feb-15 17:00N 30°01' W 093°58'2 3.2
2018-Feb-15 16:30N 29°60' W 093°57'2 3.4
2018-Feb-15 16:00N 29°59' W 093°55'0 0.9
2018-Feb-15 15:30N 29°60' W 093°55'0 0.0
2018-Feb-15 15:00N 29°60' W 093°55'0 0.0
2018-Feb-15 14:30N 29°60' W 093°55'0 0.0
2018-Feb-15 14:00N 29°60' W 093°55'0 0.0
2018-Feb-15 13:30N 29°60' W 093°55'0 0.0
2018-Feb-15 13:00N 29°60' W 093°55'0 0.0
2018-Feb-15 12:30N 29°60' W 093°55'0 0.0
2018-Feb-15 12:00N 29°60' W 093°55'0 0.0
2018-Feb-15 11:30N 29°60' W 093°55'0 0.0
2018-Feb-15 11:00N 29°60' W 093°55'0 0.0
2018-Feb-15 10:30N 29°60' W 093°55'0 0.0
2018-Feb-15 10:00N 29°60' W 093°55'0 0.0
2018-Feb-15 09:30N 29°60' W 093°55'0 0.0
2018-Feb-15 09:00N 29°60' W 093°55'0 0.0
2018-Feb-15 08:30N 29°60' W 093°55'0 0.0
2018-Feb-15 08:00N 29°60' W 093°55'0 0.0
2018-Feb-15 07:30N 29°60' W 093°55'0 0.0
2018-Feb-15 07:00N 29°60' W 093°55'0 0.0
2018-Feb-15 06:30N 29°60' W 093°55'0 0.0
2018-Feb-15 06:00N 29°60' W 093°55'0 0.0
2018-Feb-15 05:30N 29°60' W 093°55'0 0.0
2018-Feb-15 05:00N 29°60' W 093°55'0 0.0
2018-Feb-15 04:30N 29°60' W 093°55'0 0.0
2018-Feb-15 03:59N 29°60' W 093°55'0 0.0
2018-Feb-15 03:29N 29°60' W 093°55'0 0.0
2018-Feb-15 03:00N 29°60' W 093°55'0 0.0
2018-Feb-15 02:30N 29°60' W 093°55'0 0.0
2018-Feb-15 02:00N 29°60' W 093°55'0 0.0
2018-Feb-15 01:30N 29°60' W 093°55'0 0.0
2018-Feb-15 01:00N 29°60' W 093°55'0 0.0
2018-Feb-15 00:30N 29°60' W 093°55'0 0.0
2018-Feb-14 23:59N 29°60' W 093°55'0 0.1
2018-Feb-14 23:30N 29°60' W 093°55'3 6.1
2018-Feb-14 23:00N 29°58' W 093°51'0 0.4
2018-Feb-14 22:30N 29°58' W 093°52'0 0.0
2018-Feb-14 22:00N 29°58' W 093°52'0 0.0
2018-Feb-14 21:30N 29°58' W 093°52'0 0.0
2018-Feb-14 21:00N 29°58' W 093°52'0 0.0
2018-Feb-14 20:30N 29°58' W 093°52'0 0.0
2018-Feb-14 19:58N 29°58' W 093°52'0 0.0
2018-Feb-14 19:28N 29°58' W 093°52'0 0.0
2018-Feb-14 19:00N 29°58' W 093°52'0 0.0
2018-Feb-14 18:29N 29°58' W 093°52'0 0.0
2018-Feb-14 18:00N 29°58' W 093°52'0 0.0
2018-Feb-14 17:25N 29°58' W 093°52'0 0.0
2018-Feb-14 17:00N 29°58' W 093°52'0 0.0
2018-Feb-14 16:30N 29°58' W 093°52'0 0.0
2018-Feb-14 16:00N 29°58' W 093°52'0 0.0
2018-Feb-14 15:30N 29°58' W 093°52'0 0.0
2018-Feb-14 15:00N 29°58' W 093°52'0 0.0
2018-Feb-14 14:30N 29°58' W 093°52'0 0.0
2018-Feb-14 13:59N 29°58' W 093°52'1 2.0
2018-Feb-14 13:31N 29°59' W 093°52'2 4.2
2018-Feb-14 13:00N 29°60' W 093°55'0 0.0
2018-Feb-14 12:30N 29°60' W 093°55'0 0.0
2018-Feb-14 12:00N 29°60' W 093°55'0 0.0
2018-Feb-14 11:30N 29°60' W 093°55'0 0.0
2018-Feb-14 11:00N 29°60' W 093°55'0 0.0
2018-Feb-14 10:29N 29°60' W 093°55'0 0.0
2018-Feb-14 10:00N 29°60' W 093°55'0 0.0
2018-Feb-14 09:30N 29°60' W 093°55'0 0.0
2018-Feb-14 09:00N 29°60' W 093°55'0 0.0
2018-Feb-14 08:30N 29°60' W 093°55'0 0.0
2018-Feb-14 08:00N 29°60' W 093°55'0 0.0
2018-Feb-14 07:30N 29°60' W 093°55'0 0.0
2018-Feb-14 07:00N 29°60' W 093°55'3 5.2
2018-Feb-14 06:30N 29°59' W 093°52'1 1.3
2018-Feb-14 06:00N 29°58' W 093°52'0 0.0
2018-Feb-14 05:30N 29°58' W 093°52'0 0.0
2018-Feb-14 05:00N 29°58' W 093°52'0 0.1
2018-Feb-14 04:30N 29°58' W 093°52'0 0.1
2018-Feb-14 04:00N 29°58' W 093°52'0 0.0
2018-Feb-14 03:30N 29°58' W 093°52'0 0.0
2018-Feb-14 03:00N 29°58' W 093°52'0 0.0
2018-Feb-14 02:30N 29°58' W 093°52'0 0.0
2018-Feb-14 02:00N 29°58' W 093°52'0 0.0
2018-Feb-14 01:27N 29°58' W 093°52'0 0.0
2018-Feb-14 01:00N 29°58' W 093°52'0 0.0
2018-Feb-14 00:30N 29°58' W 093°52'0 0.0
2018-Feb-14 00:00N 29°58' W 093°52'0 0.0
2018-Feb-13 23:30N 29°58' W 093°52'0 0.0
2018-Feb-13 23:00N 29°58' W 093°52'0 0.0
2018-Feb-13 22:30N 29°58' W 093°52'0 0.0
2018-Feb-13 22:00N 29°58' W 093°52'0 0.0
2018-Feb-13 21:30N 29°58' W 093°52'0 0.0
2018-Feb-13 21:00N 29°58' W 093°52'0 0.0
2018-Feb-13 20:30N 29°58' W 093°52'0 0.0
2018-Feb-13 20:00N 29°58' W 093°52'0 0.0
2018-Feb-13 19:30N 29°58' W 093°52'0 0.0
2018-Feb-13 18:59N 29°58' W 093°52'0 0.0
2018-Feb-13 18:30N 29°58' W 093°52'0 0.0
2018-Feb-13 18:00N 29°58' W 093°52'0 0.0
2018-Feb-13 17:29N 29°58' W 093°52'0 0.0
2018-Feb-13 17:00N 29°58' W 093°52'0 0.0
2018-Feb-13 16:30N 29°58' W 093°52'0 0.0
2018-Feb-13 16:00N 29°58' W 093°52'0 0.0
2018-Feb-13 15:30N 29°58' W 093°52'1 2.0
2018-Feb-13 15:00N 29°59' W 093°52'2 4.2
2018-Feb-13 14:30N 29°60' W 093°55'0 0.0
2018-Feb-13 14:00N 29°60' W 093°55'0 0.0
2018-Feb-13 13:30N 29°60' W 093°55'0 0.0
2018-Feb-13 13:00N 29°60' W 093°55'0 0.0
2018-Feb-13 12:30N 29°60' W 093°55'0 0.0
2018-Feb-13 12:00N 29°60' W 093°55'0 0.0
2018-Feb-13 11:30N 29°60' W 093°55'0 0.0
2018-Feb-13 11:00N 29°60' W 093°55'0 0.0
2018-Feb-13 10:30N 29°60' W 093°55'0 0.0
2018-Feb-13 10:00N 29°60' W 093°55'0 0.0
2018-Feb-13 09:30N 29°60' W 093°55'0 0.0
2018-Feb-13 09:00N 29°60' W 093°55'1 2.0
2018-Feb-13 08:30N 29°59' W 093°54'3 5.2
2018-Feb-13 08:00N 29°58' W 093°51'3 5.4
2018-Feb-13 07:30N 29°59' W 093°48'3 5.7
2018-Feb-13 07:00N 30°01' W 093°45'3 5.1
2018-Feb-13 06:28N 30°03' W 093°43'3 4.7
2018-Feb-13 05:56N 30°04' W 093°40'3 6.6
2018-Feb-13 05:28N 30°04' W 093°37'3 6.4
2018-Feb-13 05:00N 30°04' W 093°33'3 6.3
2018-Feb-13 04:30N 30°04' W 093°30'3 6.4
2018-Feb-13 04:00N 30°04' W 093°26'3 6.2
2018-Feb-13 03:30N 30°04' W 093°22'3 5.8
2018-Feb-13 03:00N 30°05' W 093°20'1 2.7
2018-Feb-13 02:30N 30°06' W 093°19'0 0.0
2018-Feb-13 02:00N 30°06' W 093°19'0 0.2
2018-Feb-13 01:29N 30°06' W 093°19'2 3.3
2018-Feb-13 01:00N 30°05' W 093°17'1 1.7
2018-Feb-13 00:30N 30°05' W 093°17'1 1.1
2018-Feb-13 00:00N 30°04' W 093°16'1 2.3
2018-Feb-12 23:30N 30°03' W 093°16'2 4.9
2018-Feb-12 23:00N 30°01' W 093°14'3 6.1
2018-Feb-12 22:30N 29°59' W 093°12'3 6.5
2018-Feb-12 22:00N 29°56' W 093°10'42 5.6
2018-Feb-12 14:30N 29°51' W 092°21'3 4.2
2018-Feb-12 13:52N 29°50' W 092°18'2 5.1
2018-Feb-12 13:30N 29°49' W 092°17'3 5.5
2018-Feb-12 13:00N 29°48' W 092°14'2 4.6
2018-Feb-12 12:30N 29°47' W 092°12'2 4.2
2018-Feb-12 12:00N 29°47' W 092°09'3 5.4
2018-Feb-12 11:30N 29°48' W 092°06'3 5.5
2018-Feb-12 10:53N 29°49' W 092°02'  

Dump ship's entire track history